sensor_id;sensor_type;location;lat;lon;timestamp;P1;durP1;ratioP1;P2;durP2;ratioP2
73315;SDS011;61545;53.726;-0.444;2022-11-13T00:02:15;20.8;;;14;;
73315;SDS011;61545;53.726;-0.444;2022-11-13T00:07:14;23.8;;;14.9;;
73315;SDS011;61545;53.726;-0.444;2022-11-13T00:12:14;19.9;;;12.8;;
73315;SDS011;61545;53.726;-0.444;2022-11-13T00:17:14;24.4;;;15.4;;
73315;SDS011;61545;53.726;-0.444;2022-11-13T00:22:14;24.4;;;15.4;;
73315;SDS011;61545;53.726;-0.444;2022-11-13T00:27:15;26.8;;;15.7;;
73315;SDS011;61545;53.726;-0.444;2022-11-13T00:32:14;23.0;;;13.3;;
73315;SDS011;61545;53.726;-0.444;2022-11-13T00:37:14;21.9;;;14.3;;
73315;SDS011;61545;53.726;-0.444;2022-11-13T00:42:15;26.3;;;16.3;;
73315;SDS011;61545;53.726;-0.444;2022-11-13T00:47:14;24.7;;;13.6;;
73315;SDS011;61545;53.726;-0.444;2022-11-13T00:52:14;24.7;;;13.6;;
73315;SDS011;61545;53.726;-0.444;2022-11-13T00:57:14;25.5;;;16.2;;
73315;SDS011;61545;53.726;-0.444;2022-11-13T01:02:15;24.9;;;15.5;;
73315;SDS011;61545;53.726;-0.444;2022-11-13T01:07:14;21.9;;;14.6;;
73315;SDS011;61545;53.726;-0.444;2022-11-13T01:12:14;23.6;;;14.2;;
73315;SDS011;61545;53.726;-0.444;2022-11-13T01:17:14;22.5;;;14.4;;
73315;SDS011;61545;53.726;-0.444;2022-11-13T01:22:15;22.5;;;14.4;;
73315;SDS011;61545;53.726;-0.444;2022-11-13T01:27:15;22.3;;;13.6;;
73315;SDS011;61545;53.726;-0.444;2022-11-13T01:32:15;16.3;;;10.3;;
73315;SDS011;61545;53.726;-0.444;2022-11-13T01:37:15;19.8;;;13.6;;
73315;SDS011;61545;53.726;-0.444;2022-11-13T01:42:15;23.7;;;15.3;;
73315;SDS011;61545;53.726;-0.444;2022-11-13T01:47:15;25.1;;;16.7;;
73315;SDS011;61545;53.726;-0.444;2022-11-13T01:52:16;25.1;;;16.7;;
73315;SDS011;61545;53.726;-0.444;2022-11-13T01:57:15;28.6;;;18;;
73315;SDS011;61545;53.726;-0.444;2022-11-13T02:02:15;30.0;;;17.5;;
73315;SDS011;61545;53.726;-0.444;2022-11-13T02:07:16;26.8;;;17;;
73315;SDS011;61545;53.726;-0.444;2022-11-13T02:12:16;30.2;;;16.8;;
73315;SDS011;61545;53.726;-0.444;2022-11-13T02:17:17;25.8;;;15.4;;
73315;SDS011;61545;53.726;-0.444;2022-11-13T02:22:16;25.8;;;15.4;;
73315;SDS011;61545;53.726;-0.444;2022-11-13T02:27:18;25.4;;;16;;
73315;SDS011;61545;53.726;-0.444;2022-11-13T02:32:14;27.2;;;16.4;;
73315;SDS011;61545;53.726;-0.444;2022-11-13T02:37:15;31.7;;;18.4;;
73315;SDS011;61545;53.726;-0.444;2022-11-13T02:42:14;30.6;;;18.7;;
73315;SDS011;61545;53.726;-0.444;2022-11-13T02:47:15;37.1;;;20.2;;
73315;SDS011;61545;53.726;-0.444;2022-11-13T02:52:15;37.1;;;20.2;;
73315;SDS011;61545;53.726;-0.444;2022-11-13T02:57:15;29.6;;;17.2;;
73315;SDS011;61545;53.726;-0.444;2022-11-13T03:02:15;30.5;;;17.9;;
73315;SDS011;61545;53.726;-0.444;2022-11-13T03:07:15;35.5;;;18.7;;
73315;SDS011;61545;53.726;-0.444;2022-11-13T03:12:15;30.4;;;17.7;;
73315;SDS011;61545;53.726;-0.444;2022-11-13T03:17:15;23.8;;;15.1;;
73315;SDS011;61545;53.726;-0.444;2022-11-13T03:22:15;23.8;;;15.1;;
73315;SDS011;61545;53.726;-0.444;2022-11-13T03:27:15;22.6;;;14.8;;
73315;SDS011;61545;53.726;-0.444;2022-11-13T03:32:15;20.7;;;13.6;;
73315;SDS011;61545;53.726;-0.444;2022-11-13T03:37:15;37.1;;;16.9;;
73315;SDS011;61545;53.726;-0.444;2022-11-13T03:42:15;48.1;;;19.1;;
73315;SDS011;61545;53.726;-0.444;2022-11-13T03:47:15;32.2;;;17.8;;
73315;SDS011;61545;53.726;-0.444;2022-11-13T03:52:14;32.2;;;17.8;;
73315;SDS011;61545;53.726;-0.444;2022-11-13T03:57:15;42.3;;;16.5;;
73315;SDS011;61545;53.726;-0.444;2022-11-13T04:02:15;37.3;;;15.6;;
73315;SDS011;61545;53.726;-0.444;2022-11-13T04:07:15;46.4;;;13.7;;
73315;SDS011;61545;53.726;-0.444;2022-11-13T04:12:14;72.8;;;16.1;;
73315;SDS011;61545;53.726;-0.444;2022-11-13T04:17:15;63.8;;;16.3;;
73315;SDS011;61545;53.726;-0.444;2022-11-13T04:22:15;63.8;;;16.3;;
73315;SDS011;61545;53.726;-0.444;2022-11-13T04:27:15;69.2;;;14.3;;
73315;SDS011;61545;53.726;-0.444;2022-11-13T04:32:15;22.0;;;9.7;;
73315;SDS011;61545;53.726;-0.444;2022-11-13T04:37:15;14.9;;;9.2;;
73315;SDS011;61545;53.726;-0.444;2022-11-13T04:42:15;59.4;;;12.8;;
73315;SDS011;61545;53.726;-0.444;2022-11-13T04:47:15;26.7;;;13.6;;
73315;SDS011;61545;53.726;-0.444;2022-11-13T04:52:15;26.7;;;13.6;;
73315;SDS011;61545;53.726;-0.444;2022-11-13T04:57:15;40.5;;;12.6;;
73315;SDS011;61545;53.726;-0.444;2022-11-13T05:02:15;36.6;;;13;;
73315;SDS011;61545;53.726;-0.444;2022-11-13T05:07:15;29.4;;;12.4;;
73315;SDS011;61545;53.726;-0.444;2022-11-13T05:12:15;29.6;;;11;;
73315;SDS011;61545;53.726;-0.444;2022-11-13T05:17:15;19.0;;;12.1;;
73315;SDS011;61545;53.726;-0.444;2022-11-13T05:22:15;19.0;;;12.1;;
73315;SDS011;61545;53.726;-0.444;2022-11-13T05:27:15;31.2;;;11.2;;
73315;SDS011;61545;53.726;-0.444;2022-11-13T05:32:15;18.0;;;11.2;;
73315;SDS011;61545;53.726;-0.444;2022-11-13T05:37:15;25.1;;;11.1;;
73315;SDS011;61545;53.726;-0.444;2022-11-13T05:42:15;18.3;;;9.8;;
73315;SDS011;61545;53.726;-0.444;2022-11-13T05:47:15;30.5;;;13.2;;
73315;SDS011;61545;53.726;-0.444;2022-11-13T05:52:15;30.5;;;13.2;;
73315;SDS011;61545;53.726;-0.444;2022-11-13T05:57:15;72.5;;;19.1;;
73315;SDS011;61545;53.726;-0.444;2022-11-13T06:02:15;67.1;;;13.8;;
73315;SDS011;61545;53.726;-0.444;2022-11-13T06:07:15;18.7;;;11.3;;
73315;SDS011;61545;53.726;-0.444;2022-11-13T06:12:15;25.7;;;12.8;;
73315;SDS011;61545;53.726;-0.444;2022-11-13T06:17:15;24.4;;;13.6;;
73315;SDS011;61545;53.726;-0.444;2022-11-13T06:22:15;24.4;;;13.6;;
73315;SDS011;61545;53.726;-0.444;2022-11-13T06:27:15;32.4;;;13.6;;
73315;SDS011;61545;53.726;-0.444;2022-11-13T06:32:15;28.2;;;12.2;;
73315;SDS011;61545;53.726;-0.444;2022-11-13T06:37:15;46.7;;;14.4;;
73315;SDS011;61545;53.726;-0.444;2022-11-13T06:42:15;35.3;;;15.3;;
73315;SDS011;61545;53.726;-0.444;2022-11-13T06:47:15;25.4;;;12.9;;
73315;SDS011;61545;53.726;-0.444;2022-11-13T06:52:15;25.4;;;12.9;;
73315;SDS011;61545;53.726;-0.444;2022-11-13T06:57:15;37.2;;;14.9;;
73315;SDS011;61545;53.726;-0.444;2022-11-13T07:02:15;27.1;;;14.5;;
73315;SDS011;61545;53.726;-0.444;2022-11-13T07:07:15;29.9;;;14.4;;
73315;SDS011;61545;53.726;-0.444;2022-11-13T07:12:15;33.5;;;14;;
73315;SDS011;61545;53.726;-0.444;2022-11-13T07:17:15;34.0;;;13.6;;
73315;SDS011;61545;53.726;-0.444;2022-11-13T07:22:15;34.0;;;13.6;;
73315;SDS011;61545;53.726;-0.444;2022-11-13T07:27:15;36.2;;;13.9;;
73315;SDS011;61545;53.726;-0.444;2022-11-13T07:32:15;18.5;;;11.2;;
73315;SDS011;61545;53.726;-0.444;2022-11-13T07:37:15;19.1;;;11.7;;
73315;SDS011;61545;53.726;-0.444;2022-11-13T07:42:15;24.2;;;11.9;;
73315;SDS011;61545;53.726;-0.444;2022-11-13T07:47:15;17.5;;;11;;
73315;SDS011;61545;53.726;-0.444;2022-11-13T07:52:15;17.5;;;11;;
73315;SDS011;61545;53.726;-0.444;2022-11-13T07:57:15;25.1;;;13.3;;
73315;SDS011;61545;53.726;-0.444;2022-11-13T08:02:15;19.9;;;10.6;;
73315;SDS011;61545;53.726;-0.444;2022-11-13T08:07:17;19.9;;;11.7;;
73315;SDS011;61545;53.726;-0.444;2022-11-13T08:12:15;36.5;;;13.3;;
73315;SDS011;61545;53.726;-0.444;2022-11-13T08:17:15;21.7;;;9.5;;
73315;SDS011;61545;53.726;-0.444;2022-11-13T08:22:15;21.7;;;9.5;;
73315;SDS011;61545;53.726;-0.444;2022-11-13T08:27:15;17.5;;;9.3;;
73315;SDS011;61545;53.726;-0.444;2022-11-13T08:32:15;28.7;;;11.2;;
73315;SDS011;61545;53.726;-0.444;2022-11-13T08:37:15;22.1;;;10.6;;
73315;SDS011;61545;53.726;-0.444;2022-11-13T08:42:15;23.8;;;10.8;;
73315;SDS011;61545;53.726;-0.444;2022-11-13T08:47:15;20.3;;;9.5;;
73315;SDS011;61545;53.726;-0.444;2022-11-13T08:52:15;20.3;;;9.5;;
73315;SDS011;61545;53.726;-0.444;2022-11-13T08:57:15;15.6;;;9.2;;
73315;SDS011;61545;53.726;-0.444;2022-11-13T09:02:15;13.8;;;7.8;;
73315;SDS011;61545;53.726;-0.444;2022-11-13T09:07:15;18.6;;;8.6;;
73315;SDS011;61545;53.726;-0.444;2022-11-13T09:12:15;18.7;;;10;;
73315;SDS011;61545;53.726;-0.444;2022-11-13T09:17:15;19.8;;;9.7;;
73315;SDS011;61545;53.726;-0.444;2022-11-13T09:22:15;19.8;;;9.7;;
73315;SDS011;61545;53.726;-0.444;2022-11-13T09:27:15;20.9;;;10.3;;
73315;SDS011;61545;53.726;-0.444;2022-11-13T09:32:15;23.8;;;9.7;;
73315;SDS011;61545;53.726;-0.444;2022-11-13T09:37:15;27.7;;;11.9;;
73315;SDS011;61545;53.726;-0.444;2022-11-13T09:42:17;15.0;;;9.3;;
73315;SDS011;61545;53.726;-0.444;2022-11-13T09:47:16;19.3;;;9.7;;
73315;SDS011;61545;53.726;-0.444;2022-11-13T09:52:16;19.3;;;9.7;;
73315;SDS011;61545;53.726;-0.444;2022-11-13T09:57:21;15.6;;;9;;
73315;SDS011;61545;53.726;-0.444;2022-11-13T10:02:17;17.4;;;10.7;;
73315;SDS011;61545;53.726;-0.444;2022-11-13T10:07:21;17.0;;;10;;
73315;SDS011;61545;53.726;-0.444;2022-11-13T10:12:15;33.6;;;14.1;;
73315;SDS011;61545;53.726;-0.444;2022-11-13T10:17:17;38.6;;;15.8;;
73315;SDS011;61545;53.726;-0.444;2022-11-13T10:22:17;38.6;;;15.8;;
73315;SDS011;61545;53.726;-0.444;2022-11-13T10:27:15;68.9;;;20.5;;
73315;SDS011;61545;53.726;-0.444;2022-11-13T10:32:17;25.9;;;12.5;;
73315;SDS011;61545;53.726;-0.444;2022-11-13T10:37:22;34.5;;;16.5;;
73315;SDS011;61545;53.726;-0.444;2022-11-13T10:42:25;38.8;;;19.7;;
73315;SDS011;61545;53.726;-0.444;2022-11-13T10:47:16;23.6;;;12.3;;
73315;SDS011;61545;53.726;-0.444;2022-11-13T10:52:16;23.6;;;12.3;;
73315;SDS011;61545;53.726;-0.444;2022-11-13T10:57:23;23.0;;;12.6;;
73315;SDS011;61545;53.726;-0.444;2022-11-13T11:02:16;26.5;;;13.8;;
73315;SDS011;61545;53.726;-0.444;2022-11-13T11:07:17;34.6;;;17;;
73315;SDS011;61545;53.726;-0.444;2022-11-13T11:12:16;26.3;;;13.8;;
73315;SDS011;61545;53.726;-0.444;2022-11-13T11:17:15;27.7;;;13.4;;
73315;SDS011;61545;53.726;-0.444;2022-11-13T11:22:16;27.7;;;13.4;;
73315;SDS011;61545;53.726;-0.444;2022-11-13T11:27:17;26.3;;;13.3;;
73315;SDS011;61545;53.726;-0.444;2022-11-13T11:32:18;20.5;;;11.9;;
73315;SDS011;61545;53.726;-0.444;2022-11-13T11:37:16;18.3;;;10.8;;
73315;SDS011;61545;53.726;-0.444;2022-11-13T11:42:19;24.8;;;13.6;;
73315;SDS011;61545;53.726;-0.444;2022-11-13T11:47:15;20.6;;;11.9;;
73315;SDS011;61545;53.726;-0.444;2022-11-13T11:52:23;20.6;;;11.9;;
73315;SDS011;61545;53.726;-0.444;2022-11-13T11:57:23;23.3;;;12.3;;
73315;SDS011;61545;53.726;-0.444;2022-11-13T12:02:41;28.8;;;14.4;;
73315;SDS011;61545;53.726;-0.444;2022-11-13T12:07:33;17.1;;;10.2;;
73315;SDS011;61545;53.726;-0.444;2022-11-13T12:12:17;28.7;;;15;;
73315;SDS011;61545;53.726;-0.444;2022-11-13T12:17:23;26.2;;;13.9;;
73315;SDS011;61545;53.726;-0.444;2022-11-13T12:22:17;26.2;;;13.9;;
73315;SDS011;61545;53.726;-0.444;2022-11-13T12:27:20;26.6;;;14.2;;
73315;SDS011;61545;53.726;-0.444;2022-11-13T12:32:22;26.5;;;15.8;;
73315;SDS011;61545;53.726;-0.444;2022-11-13T12:37:25;46.1;;;18.8;;
73315;SDS011;61545;53.726;-0.444;2022-11-13T12:42:19;63.8;;;25.2;;
73315;SDS011;61545;53.726;-0.444;2022-11-13T12:47:15;51.6;;;23.2;;
73315;SDS011;61545;53.726;-0.444;2022-11-13T12:52:17;51.6;;;23.2;;
73315;SDS011;61545;53.726;-0.444;2022-11-13T12:57:17;34.2;;;17.8;;
73315;SDS011;61545;53.726;-0.444;2022-11-13T13:02:42;25.1;;;14.3;;
73315;SDS011;61545;53.726;-0.444;2022-11-13T13:07:30;23.6;;;13.9;;
73315;SDS011;61545;53.726;-0.444;2022-11-13T13:12:18;43.5;;;19.2;;
73315;SDS011;61545;53.726;-0.444;2022-11-13T13:17:17;43.5;;;19.2;;
73315;SDS011;61545;53.726;-0.444;2022-11-13T13:22:24;52.0;;;24.6;;
73315;SDS011;61545;53.726;-0.444;2022-11-13T13:27:23;41.2;;;18;;
73315;SDS011;61545;53.726;-0.444;2022-11-13T13:32:17;60.6;;;26.8;;
73315;SDS011;61545;53.726;-0.444;2022-11-13T13:37:21;57.8;;;26.8;;
73315;SDS011;61545;53.726;-0.444;2022-11-13T13:42:21;39.1;;;19.4;;
73315;SDS011;61545;53.726;-0.444;2022-11-13T13:47:19;39.1;;;19.4;;
73315;SDS011;61545;53.726;-0.444;2022-11-13T13:52:15;36.6;;;18.1;;
73315;SDS011;61545;53.726;-0.444;2022-11-13T13:57:15;37.5;;;17.7;;
73315;SDS011;61545;53.726;-0.444;2022-11-13T14:02:16;38.9;;;19.6;;
73315;SDS011;61545;53.726;-0.444;2022-11-13T14:07:18;32.8;;;17.1;;
73315;SDS011;61545;53.726;-0.444;2022-11-13T14:12:16;38.6;;;20.5;;
73315;SDS011;61545;53.726;-0.444;2022-11-13T14:17:21;38.6;;;20.5;;
73315;SDS011;61545;53.726;-0.444;2022-11-13T14:22:15;89.5;;;37.7;;
73315;SDS011;61545;53.726;-0.444;2022-11-13T14:27:17;47.2;;;23.1;;
73315;SDS011;61545;53.726;-0.444;2022-11-13T14:32:17;50.8;;;24.2;;
73315;SDS011;61545;53.726;-0.444;2022-11-13T14:37:22;39.3;;;19.6;;
73315;SDS011;61545;53.726;-0.444;2022-11-13T14:42:16;52.2;;;26;;
73315;SDS011;61545;53.726;-0.444;2022-11-13T14:47:21;52.2;;;26;;
73315;SDS011;61545;53.726;-0.444;2022-11-13T14:52:20;66.8;;;29.4;;
73315;SDS011;61545;53.726;-0.444;2022-11-13T14:57:15;46.5;;;23.7;;
73315;SDS011;61545;53.726;-0.444;2022-11-13T15:02:15;37.2;;;19.2;;
73315;SDS011;61545;53.726;-0.444;2022-11-13T15:07:18;31.6;;;18.5;;
73315;SDS011;61545;53.726;-0.444;2022-11-13T15:12:15;48.2;;;26.6;;
73315;SDS011;61545;53.726;-0.444;2022-11-13T15:17:16;48.2;;;26.6;;
73315;SDS011;61545;53.726;-0.444;2022-11-13T15:22:15;38.6;;;20.8;;
73315;SDS011;61545;53.726;-0.444;2022-11-13T15:27:15;34.6;;;18.2;;
73315;SDS011;61545;53.726;-0.444;2022-11-13T15:32:15;38.6;;;21.2;;
73315;SDS011;61545;53.726;-0.444;2022-11-13T15:37:15;33.2;;;19.8;;
73315;SDS011;61545;53.726;-0.444;2022-11-13T15:42:16;26.2;;;15.3;;
73315;SDS011;61545;53.726;-0.444;2022-11-13T15:47:24;26.2;;;15.3;;
73315;SDS011;61545;53.726;-0.444;2022-11-13T15:52:15;32.7;;;17.5;;
73315;SDS011;61545;53.726;-0.444;2022-11-13T15:57:17;29.1;;;16.3;;
73315;SDS011;61545;53.726;-0.444;2022-11-13T16:02:15;25.5;;;14.4;;
73315;SDS011;61545;53.726;-0.444;2022-11-13T16:07:16;27.3;;;15;;
73315;SDS011;61545;53.726;-0.444;2022-11-13T16:12:15;46.0;;;25.7;;
73315;SDS011;61545;53.726;-0.444;2022-11-13T16:17:15;46.0;;;25.7;;
73315;SDS011;61545;53.726;-0.444;2022-11-13T16:22:17;36.3;;;17.9;;
73315;SDS011;61545;53.726;-0.444;2022-11-13T16:27:19;33.6;;;17.3;;
73315;SDS011;61545;53.726;-0.444;2022-11-13T16:32:15;38.4;;;19.8;;
73315;SDS011;61545;53.726;-0.444;2022-11-13T16:37:16;39.8;;;18.3;;
73315;SDS011;61545;53.726;-0.444;2022-11-13T16:42:15;112.4;;;29.8;;
73315;SDS011;61545;53.726;-0.444;2022-11-13T16:47:19;112.4;;;29.8;;
73315;SDS011;61545;53.726;-0.444;2022-11-13T16:52:15;81.0;;;26;;
73315;SDS011;61545;53.726;-0.444;2022-11-13T16:57:15;84.4;;;26.2;;
73315;SDS011;61545;53.726;-0.444;2022-11-13T17:02:16;75.5;;;27.7;;
73315;SDS011;61545;53.726;-0.444;2022-11-13T17:07:15;113.2;;;33;;
73315;SDS011;61545;53.726;-0.444;2022-11-13T17:12:15;108.7;;;39.4;;
73315;SDS011;61545;53.726;-0.444;2022-11-13T17:17:15;108.7;;;39.4;;
73315;SDS011;61545;53.726;-0.444;2022-11-13T17:22:15;87.3;;;34.9;;
73315;SDS011;61545;53.726;-0.444;2022-11-13T17:27:15;89.2;;;35.6;;
73315;SDS011;61545;53.726;-0.444;2022-11-13T17:32:15;76.9;;;30.8;;
73315;SDS011;61545;53.726;-0.444;2022-11-13T17:37:15;75.0;;;30;;
73315;SDS011;61545;53.726;-0.444;2022-11-13T17:42:15;84.9;;;29.7;;
73315;SDS011;61545;53.726;-0.444;2022-11-13T17:47:15;84.9;;;29.7;;
73315;SDS011;61545;53.726;-0.444;2022-11-13T17:52:15;60.3;;;26.2;;
73315;SDS011;61545;53.726;-0.444;2022-11-13T17:57:15;64.1;;;28.3;;
73315;SDS011;61545;53.726;-0.444;2022-11-13T18:02:15;88.3;;;33.3;;
73315;SDS011;61545;53.726;-0.444;2022-11-13T18:07:15;71.2;;;30.2;;
73315;SDS011;61545;53.726;-0.444;2022-11-13T18:12:15;64.1;;;26.2;;
73315;SDS011;61545;53.726;-0.444;2022-11-13T18:17:15;64.1;;;26.2;;
73315;SDS011;61545;53.726;-0.444;2022-11-13T18:22:15;82.5;;;28.4;;
73315;SDS011;61545;53.726;-0.444;2022-11-13T18:27:15;54.5;;;22.3;;
73315;SDS011;61545;53.726;-0.444;2022-11-13T18:32:15;91.0;;;27.7;;
73315;SDS011;61545;53.726;-0.444;2022-11-13T18:37:15;59.6;;;23.7;;
73315;SDS011;61545;53.726;-0.444;2022-11-13T18:42:15;94.4;;;30.9;;
73315;SDS011;61545;53.726;-0.444;2022-11-13T18:47:15;94.4;;;30.9;;
73315;SDS011;61545;53.726;-0.444;2022-11-13T18:52:15;76.1;;;25.7;;
73315;SDS011;61545;53.726;-0.444;2022-11-13T18:57:15;124.7;;;38.6;;
73315;SDS011;61545;53.726;-0.444;2022-11-13T19:02:15;144.3;;;34.9;;
73315;SDS011;61545;53.726;-0.444;2022-11-13T19:07:15;141.3;;;40.4;;
73315;SDS011;61545;53.726;-0.444;2022-11-13T19:12:15;106.6;;;37.8;;
73315;SDS011;61545;53.726;-0.444;2022-11-13T19:17:15;106.6;;;37.8;;
73315;SDS011;61545;53.726;-0.444;2022-11-13T19:22:15;125.5;;;36;;
73315;SDS011;61545;53.726;-0.444;2022-11-13T19:27:15;102.6;;;32.2;;
73315;SDS011;61545;53.726;-0.444;2022-11-13T19:32:15;85.9;;;29.5;;
73315;SDS011;61545;53.726;-0.444;2022-11-13T19:37:15;92.1;;;25.8;;
73315;SDS011;61545;53.726;-0.444;2022-11-13T19:42:15;76.7;;;23.6;;
73315;SDS011;61545;53.726;-0.444;2022-11-13T19:47:15;76.7;;;23.6;;
73315;SDS011;61545;53.726;-0.444;2022-11-13T19:52:15;59.6;;;19.1;;
73315;SDS011;61545;53.726;-0.444;2022-11-13T19:57:15;47.5;;;19.3;;
73315;SDS011;61545;53.726;-0.444;2022-11-13T20:02:15;21.2;;;12.1;;
73315;SDS011;61545;53.726;-0.444;2022-11-13T20:07:15;50.2;;;20.4;;
73315;SDS011;61545;53.726;-0.444;2022-11-13T20:12:15;45.1;;;20.4;;
73315;SDS011;61545;53.726;-0.444;2022-11-13T20:17:15;45.1;;;20.4;;
73315;SDS011;61545;53.726;-0.444;2022-11-13T20:22:15;45.8;;;18.6;;
73315;SDS011;61545;53.726;-0.444;2022-11-13T20:27:15;34.8;;;15.8;;
73315;SDS011;61545;53.726;-0.444;2022-11-13T20:32:15;32.9;;;15.7;;
73315;SDS011;61545;53.726;-0.444;2022-11-13T20:37:15;41.4;;;19;;
73315;SDS011;61545;53.726;-0.444;2022-11-13T20:42:15;29.0;;;14.9;;
73315;SDS011;61545;53.726;-0.444;2022-11-13T20:47:15;29.0;;;14.9;;
73315;SDS011;61545;53.726;-0.444;2022-11-13T20:52:15;32.3;;;17;;
73315;SDS011;61545;53.726;-0.444;2022-11-13T20:57:15;28.3;;;15.3;;
73315;SDS011;61545;53.726;-0.444;2022-11-13T21:02:15;33.9;;;17.2;;
73315;SDS011;61545;53.726;-0.444;2022-11-13T21:07:15;36.9;;;20;;
73315;SDS011;61545;53.726;-0.444;2022-11-13T21:12:15;31.2;;;19;;
73315;SDS011;61545;53.726;-0.444;2022-11-13T21:17:15;31.2;;;19;;
73315;SDS011;61545;53.726;-0.444;2022-11-13T21:22:15;38.8;;;19.2;;
73315;SDS011;61545;53.726;-0.444;2022-11-13T21:27:15;36.0;;;16.7;;
73315;SDS011;61545;53.726;-0.444;2022-11-13T21:32:15;21.9;;;12.8;;
73315;SDS011;61545;53.726;-0.444;2022-11-13T21:37:15;27.3;;;12.1;;
73315;SDS011;61545;53.726;-0.444;2022-11-13T21:42:15;19.6;;;10.3;;
73315;SDS011;61545;53.726;-0.444;2022-11-13T21:47:15;19.6;;;10.3;;
73315;SDS011;61545;53.726;-0.444;2022-11-13T21:52:15;21.6;;;10;;
73315;SDS011;61545;53.726;-0.444;2022-11-13T21:57:15;20.1;;;10;;
73315;SDS011;61545;53.726;-0.444;2022-11-13T22:02:15;18.8;;;9.8;;
73315;SDS011;61545;53.726;-0.444;2022-11-13T22:07:15;19.7;;;9.2;;
73315;SDS011;61545;53.726;-0.444;2022-11-13T22:12:15;18.5;;;9.4;;
73315;SDS011;61545;53.726;-0.444;2022-11-13T22:17:15;18.5;;;9.4;;
73315;SDS011;61545;53.726;-0.444;2022-11-13T22:22:15;18.0;;;8.5;;
73315;SDS011;61545;53.726;-0.444;2022-11-13T22:27:15;23.9;;;10.2;;
73315;SDS011;61545;53.726;-0.444;2022-11-13T22:32:15;17.2;;;8.7;;
73315;SDS011;61545;53.726;-0.444;2022-11-13T22:37:15;24.1;;;9.8;;
73315;SDS011;61545;53.726;-0.444;2022-11-13T22:42:15;22.1;;;11.1;;
73315;SDS011;61545;53.726;-0.444;2022-11-13T22:47:15;22.1;;;11.1;;
73315;SDS011;61545;53.726;-0.444;2022-11-13T22:52:15;19.8;;;10.8;;
73315;SDS011;61545;53.726;-0.444;2022-11-13T22:57:15;25.0;;;12;;
73315;SDS011;61545;53.726;-0.444;2022-11-13T23:02:15;16.5;;;9.6;;
73315;SDS011;61545;53.726;-0.444;2022-11-13T23:07:15;27.7;;;13.3;;
73315;SDS011;61545;53.726;-0.444;2022-11-13T23:12:15;31.4;;;13.2;;
73315;SDS011;61545;53.726;-0.444;2022-11-13T23:17:15;31.4;;;13.2;;
73315;SDS011;61545;53.726;-0.444;2022-11-13T23:22:15;31.0;;;15.2;;
73315;SDS011;61545;53.726;-0.444;2022-11-13T23:27:15;72.2;;;17.4;;
73315;SDS011;61545;53.726;-0.444;2022-11-13T23:32:15;66.6;;;15;;
73315;SDS011;61545;53.726;-0.444;2022-11-13T23:37:15;16.9;;;10.8;;
73315;SDS011;61545;53.726;-0.444;2022-11-13T23:42:15;36.6;;;10.9;;
73315;SDS011;61545;53.726;-0.444;2022-11-13T23:47:15;36.6;;;10.9;;
73315;SDS011;61545;53.726;-0.444;2022-11-13T23:52:15;23.6;;;9.2;;
73315;SDS011;61545;53.726;-0.444;2022-11-13T23:57:15;21.4;;;11.3;;
